createdAt,value
2017-04-05T00:00:04.034Z,6.46
2017-04-05T00:00:08.338Z,6.46
2017-04-05T00:00:12.763Z,6.46
2017-04-05T00:00:17.076Z,6.47
2017-04-05T00:00:21.503Z,6.46
2017-04-05T00:00:25.932Z,6.47
2017-04-05T00:00:30.244Z,6.47
2017-04-05T00:00:34.677Z,6.46
2017-04-05T00:00:39.109Z,6.46
2017-04-05T00:00:43.416Z,6.47
2017-04-05T00:00:47.730Z,6.47
2017-04-05T00:00:52.043Z,6.47
2017-04-05T00:00:56.468Z,6.48
2017-04-05T00:01:00.770Z,6.47
2017-04-05T00:01:05.213Z,6.47
2017-04-05T00:01:09.518Z,6.47
2017-04-05T00:01:13.949Z,6.47
2017-04-05T00:01:18.372Z,6.48
2017-04-05T00:01:22.802Z,6.47
2017-04-05T00:01:27.237Z,6.47
2017-04-05T00:01:31.542Z,6.48
2017-04-05T00:01:35.859Z,6.47
2017-04-05T00:01:40.172Z,6.48
2017-04-05T00:01:44.598Z,6.47
2017-04-05T00:01:49.019Z,6.48
2017-04-05T00:01:53.445Z,6.48
2017-04-05T00:01:57.873Z,6.48
2017-04-05T00:02:02.300Z,6.48
2017-04-05T00:02:06.607Z,6.48
2017-04-05T00:02:10.920Z,6.48
2017-04-05T00:02:15.115Z,6.48
2017-04-05T00:02:19.426Z,6.48
2017-04-05T00:02:23.851Z,6.49
2017-04-05T00:02:28.275Z,6.48
2017-04-05T00:02:32.468Z,6.48
2017-04-05T00:02:36.896Z,6.49
2017-04-05T00:02:41.316Z,6.49
2017-04-05T00:02:45.739Z,6.49
2017-04-05T00:02:49.804Z,6.49
2017-04-05T00:02:54.137Z,6.5
2017-04-05T00:02:58.558Z,6.49
2017-04-05T00:03:03.082Z,6.5
2017-04-05T00:03:07.504Z,6.49
2017-04-05T00:03:11.815Z,6.49
2017-04-05T00:03:16.241Z,6.49
2017-04-05T00:03:20.668Z,6.5
2017-04-05T00:03:25.126Z,6.49
2017-04-05T00:03:29.314Z,6.5
2017-04-05T00:03:33.742Z,6.49
2017-04-05T00:03:38.170Z,6.5
2017-04-05T00:03:42.475Z,6.5
2017-04-05T00:03:46.901Z,6.49
2017-04-05T00:03:51.210Z,6.5
2017-04-05T00:03:55.633Z,6.5
2017-04-05T00:04:00.051Z,6.5
2017-04-05T00:04:04.483Z,6.5
2017-04-05T00:04:08.793Z,6.5
2017-04-05T00:04:13.220Z,6.49
2017-04-05T00:04:17.522Z,6.51
2017-04-05T00:04:21.953Z,6.5
2017-04-05T00:04:26.373Z,6.49
2017-04-05T00:04:30.689Z,6.5
2017-04-05T00:04:34.997Z,6.5
2017-04-05T00:04:39.423Z,6.51
2017-04-05T00:04:43.730Z,6.51
2017-04-05T00:04:48.157Z,6.5
2017-04-05T00:04:52.580Z,6.5
2017-04-05T00:04:57.010Z,6.51
2017-04-05T00:05:01.441Z,6.5
2017-04-05T00:05:05.748Z,6.51
2017-04-05T00:05:10.174Z,6.5
2017-04-05T00:05:14.602Z,6.51
2017-04-05T00:05:18.681Z,6.51
2017-04-05T00:05:22.892Z,6.51
2017-04-05T00:05:27.322Z,6.51
2017-04-05T00:05:31.516Z,6.51
2017-04-05T00:05:35.721Z,6.52
2017-04-05T00:05:40.149Z,6.52
2017-04-05T00:05:44.469Z,6.52
2017-04-05T00:05:48.786Z,6.51
2017-04-05T00:05:53.109Z,6.52
2017-04-05T00:05:57.535Z,6.52
2017-04-05T00:06:01.738Z,6.52
2017-04-05T00:06:06.208Z,6.52
2017-04-05T00:06:10.403Z,6.52
2017-04-05T00:06:14.828Z,6.52
2017-04-05T00:06:19.022Z,6.52
2017-04-05T00:06:23.346Z,6.52
2017-04-05T00:06:27.660Z,6.51
2017-04-05T00:06:32.093Z,6.51
2017-04-05T00:06:36.402Z,6.51
2017-04-05T00:06:40.607Z,6.51
2017-04-05T00:06:45.048Z,6.51
2017-04-05T00:06:49.368Z,6.51
2017-04-05T00:06:53.677Z,6.51
2017-04-05T00:06:58.109Z,6.51
2017-04-05T00:07:02.424Z,6.51
2017-04-05T00:07:06.741Z,6.5
2017-04-05T00:07:11.064Z,6.51
2017-04-05T00:07:15.495Z,6.5
2017-04-05T00:07:19.924Z,6.51
2017-04-05T00:07:24.145Z,6.51
2017-04-05T00:07:28.462Z,6.5
2017-04-05T00:07:32.785Z,6.49
2017-04-05T00:07:36.986Z,6.5
2017-04-05T00:07:41.303Z,6.49
2017-04-05T00:07:45.515Z,6.49
2017-04-05T00:07:49.945Z,6.5
2017-04-05T00:07:54.141Z,6.49
2017-04-05T00:07:58.565Z,6.49
2017-04-05T00:08:02.646Z,6.49
2017-04-05T00:08:06.844Z,6.49
2017-04-05T00:08:11.277Z,6.49
2017-04-05T00:08:15.356Z,6.48
2017-04-05T00:08:19.784Z,6.49
2017-04-05T00:08:24.104Z,6.48
2017-04-05T00:08:28.327Z,6.48
2017-04-05T00:08:32.638Z,6.48
2017-04-05T00:08:37.078Z,6.47
2017-04-05T00:08:41.423Z,6.47
2017-04-05T00:08:45.628Z,6.47
2017-04-05T00:08:50.054Z,6.47
2017-04-05T00:08:54.024Z,6.46
2017-04-05T00:08:58.244Z,6.45
2017-04-05T00:09:02.561Z,6.46
2017-04-05T00:09:06.986Z,6.47
2017-04-05T00:09:11.307Z,6.46
2017-04-05T00:09:15.773Z,6.46
2017-04-05T00:09:19.972Z,6.46
2017-04-05T00:09:24.049Z,6.45
2017-04-05T00:09:28.479Z,6.45
2017-04-05T00:09:32.826Z,6.46
2017-04-05T00:09:37.024Z,6.45
2017-04-05T00:09:41.462Z,6.45
2017-04-05T00:09:45.772Z,6.45
2017-04-05T00:09:50.205Z,6.45
2017-04-05T00:09:54.404Z,6.45
2017-04-05T00:09:58.605Z,6.45
2017-04-05T00:10:03.187Z,6.44
2017-04-05T00:10:07.627Z,6.44
2017-04-05T00:10:12.067Z,6.44
2017-04-05T00:10:16.271Z,6.43
2017-04-05T00:10:20.705Z,6.44
2017-04-05T00:10:25.027Z,6.44
2017-04-05T00:10:29.353Z,6.43
2017-04-05T00:10:33.781Z,6.43
2017-04-05T00:10:38.091Z,6.44
2017-04-05T00:10:42.412Z,6.43
2017-04-05T00:10:46.616Z,6.43
2017-04-05T00:10:50.824Z,6.43
2017-04-05T00:10:55.251Z,6.43
2017-04-05T00:10:59.687Z,6.43
2017-04-05T00:11:04.003Z,6.42
2017-04-05T00:11:08.087Z,6.42
2017-04-05T00:11:12.516Z,6.43
2017-04-05T00:11:16.952Z,6.42
2017-04-05T00:11:21.389Z,6.42
2017-04-05T00:11:25.817Z,6.42
2017-04-05T00:11:30.038Z,6.42
2017-04-05T00:11:34.476Z,6.42
2017-04-05T00:11:38.789Z,6.42
2017-04-05T00:11:43.219Z,6.43
2017-04-05T00:11:47.646Z,6.42
2017-04-05T00:11:52.082Z,6.41
2017-04-05T00:11:56.388Z,6.42
2017-04-05T00:12:00.827Z,6.41
2017-04-05T00:12:05.433Z,6.41
2017-04-05T00:12:09.739Z,6.42
2017-04-05T00:12:14.168Z,6.41
2017-04-05T00:12:18.368Z,6.41
2017-04-05T00:12:22.804Z,6.42
2017-04-05T00:12:26.999Z,6.42
2017-04-05T00:12:31.432Z,6.41
2017-04-05T00:12:35.865Z,6.41
2017-04-05T00:12:40.286Z,6.42
2017-04-05T00:12:44.594Z,6.41
2017-04-05T00:12:49.022Z,6.41
2017-04-05T00:12:53.332Z,6.41
2017-04-05T00:12:57.756Z,6.41
2017-04-05T00:13:02.202Z,6.41
2017-04-05T00:13:06.632Z,6.41
2017-04-05T00:13:11.053Z,6.41
2017-04-05T00:13:15.477Z,6.4
2017-04-05T00:13:19.904Z,6.4
2017-04-05T00:13:24.367Z,6.4
2017-04-05T00:13:28.670Z,6.41
2017-04-05T00:13:33.099Z,6.41
2017-04-05T00:13:37.527Z,6.4
2017-04-05T00:13:41.989Z,6.41
2017-04-05T00:13:46.407Z,6.41
2017-04-05T00:13:50.834Z,6.41
2017-04-05T00:13:55.256Z,6.4
2017-04-05T00:13:59.681Z,6.4
2017-04-05T00:14:04.108Z,6.4
2017-04-05T00:14:08.528Z,6.4
2017-04-05T00:14:12.949Z,6.4
2017-04-05T00:14:17.380Z,6.4
2017-04-05T00:14:21.685Z,6.4
2017-04-05T00:14:25.989Z,6.41
2017-04-05T00:14:30.411Z,6.39
2017-04-05T00:14:34.745Z,6.39
2017-04-05T00:14:39.171Z,6.4
2017-04-05T00:14:43.477Z,6.39
2017-04-05T00:14:47.901Z,6.4
2017-04-05T00:14:52.324Z,6.4
2017-04-05T00:14:56.744Z,6.4
2017-04-05T00:15:01.171Z,6.4
2017-04-05T00:15:05.594Z,6.4
2017-04-05T00:15:10.026Z,6.4
2017-04-05T00:15:14.479Z,6.4
2017-04-05T00:15:18.827Z,6.4
2017-04-05T00:15:23.269Z,6.39
2017-04-05T00:15:27.696Z,6.4
2017-04-05T00:15:32.003Z,6.39
2017-04-05T00:15:36.439Z,6.4
2017-04-05T00:15:40.749Z,6.4
2017-04-05T00:15:45.055Z,6.4
2017-04-05T00:15:49.482Z,6.4
2017-04-05T00:15:53.787Z,6.39
2017-04-05T00:15:58.095Z,6.39
2017-04-05T00:16:02.671Z,6.4
2017-04-05T00:16:07.127Z,6.39
2017-04-05T00:16:11.557Z,6.39
2017-04-05T00:16:15.868Z,6.39
2017-04-05T00:16:20.182Z,6.39
2017-04-05T00:16:24.617Z,6.39
2017-04-05T00:16:28.927Z,6.39
2017-04-05T00:16:33.232Z,6.39
2017-04-05T00:16:37.655Z,6.38
2017-04-05T00:16:42.081Z,6.38
2017-04-05T00:16:46.273Z,6.38
2017-04-05T00:16:50.696Z,6.39
2017-04-05T00:16:55.010Z,6.39
2017-04-05T00:16:59.441Z,6.39
2017-04-05T00:17:03.899Z,6.39
2017-04-05T00:17:08.205Z,6.39
2017-04-05T00:17:12.628Z,6.38
2017-04-05T00:17:17.057Z,6.38
2017-04-05T00:17:21.476Z,6.38
2017-04-05T00:17:25.898Z,6.39
2017-04-05T00:17:30.324Z,6.39
2017-04-05T00:17:34.764Z,6.38
2017-04-05T00:17:39.186Z,6.39
2017-04-05T00:17:43.611Z,6.38
2017-04-05T00:17:47.936Z,6.38
2017-04-05T00:17:52.358Z,6.39
2017-04-05T00:17:56.778Z,6.39
2017-04-05T00:18:01.085Z,6.39
2017-04-05T00:18:05.498Z,6.38
2017-04-05T00:18:09.688Z,6.38
2017-04-05T00:18:14.113Z,6.39
2017-04-05T00:18:18.535Z,6.38
2017-04-05T00:18:22.841Z,6.38
2017-04-05T00:18:27.258Z,6.38
2017-04-05T00:18:31.682Z,6.38
2017-04-05T00:18:36.000Z,6.38
2017-04-05T00:18:40.433Z,6.38
2017-04-05T00:18:44.856Z,6.37
2017-04-05T00:18:49.286Z,6.38
2017-04-05T00:18:53.715Z,6.38
2017-04-05T00:18:57.906Z,6.38
2017-04-05T00:19:02.567Z,6.38
2017-04-05T00:19:06.991Z,6.38
2017-04-05T00:19:11.413Z,6.38
2017-04-05T00:19:15.835Z,6.38
2017-04-05T00:19:20.257Z,6.38
2017-04-05T00:19:24.678Z,6.38
2017-04-05T00:19:29.097Z,6.38
2017-04-05T00:19:33.286Z,6.38
2017-04-05T00:19:37.737Z,6.37
2017-04-05T00:19:42.164Z,6.37
2017-04-05T00:19:46.585Z,6.38
2017-04-05T00:19:50.889Z,6.37
2017-04-05T00:19:55.314Z,6.38
2017-04-05T00:19:59.743Z,6.38
2017-04-05T00:20:04.055Z,6.37
2017-04-05T00:20:08.358Z,6.38
2017-04-05T00:20:12.554Z,6.38
2017-04-05T00:20:16.978Z,6.38
2017-04-05T00:20:21.403Z,6.38
2017-04-05T00:20:25.824Z,6.38
2017-04-05T00:20:30.137Z,6.38
2017-04-05T00:20:34.559Z,6.38
2017-04-05T00:20:38.982Z,6.37
2017-04-05T00:20:43.405Z,6.38
2017-04-05T00:20:47.718Z,6.38
2017-04-05T00:20:51.794Z,6.38
2017-04-05T00:20:56.220Z,6.38
2017-04-05T00:21:00.646Z,6.38
2017-04-05T00:21:05.072Z,6.38
2017-04-05T00:21:09.507Z,6.38
2017-04-05T00:21:13.932Z,6.38
2017-04-05T00:21:18.364Z,6.37
2017-04-05T00:21:22.789Z,6.38
2017-04-05T00:21:27.098Z,6.38
2017-04-05T00:21:31.527Z,6.38
2017-04-05T00:21:35.718Z,6.38
2017-04-05T00:21:40.171Z,6.37
2017-04-05T00:21:44.477Z,6.37
2017-04-05T00:21:48.670Z,6.38
2017-04-05T00:21:53.099Z,6.37
2017-04-05T00:21:57.522Z,6.38
2017-04-05T00:22:01.947Z,6.38
2017-04-05T00:22:06.138Z,6.37
2017-04-05T00:22:10.464Z,6.37
2017-04-05T00:22:14.895Z,6.37
2017-04-05T00:22:19.327Z,6.38
2017-04-05T00:22:23.761Z,6.38
2017-04-05T00:22:28.070Z,6.37
2017-04-05T00:22:32.499Z,6.38
2017-04-05T00:22:36.922Z,6.36
2017-04-05T00:22:41.232Z,6.37
2017-04-05T00:22:45.672Z,6.37
2017-04-05T00:22:50.091Z,6.38
2017-04-05T00:22:54.508Z,6.37
2017-04-05T00:22:58.931Z,6.38
2017-04-05T00:23:03.407Z,6.37
2017-04-05T00:23:07.595Z,6.38
2017-04-05T00:23:12.023Z,6.38
2017-04-05T00:23:16.450Z,6.38
2017-04-05T00:23:20.874Z,6.38
2017-04-05T00:23:25.297Z,6.37
2017-04-05T00:23:29.598Z,6.37
2017-04-05T00:23:33.905Z,6.37
2017-04-05T00:23:38.357Z,6.37
2017-04-05T00:23:42.780Z,6.38
2017-04-05T00:23:47.201Z,6.38
2017-04-05T00:23:51.628Z,6.37
2017-04-05T00:23:56.081Z,6.37
2017-04-05T00:24:00.509Z,6.37
2017-04-05T00:24:05.016Z,6.38
2017-04-05T00:24:09.445Z,6.38
2017-04-05T00:24:13.911Z,6.38
2017-04-05T00:24:18.097Z,6.38
2017-04-05T00:24:22.529Z,6.38
2017-04-05T00:24:26.954Z,6.38
2017-04-05T00:24:31.290Z,6.37
2017-04-05T00:24:35.720Z,6.38
2017-04-05T00:24:40.143Z,6.38
2017-04-05T00:24:44.582Z,6.37
2017-04-05T00:24:48.919Z,6.38
2017-04-05T00:24:53.344Z,6.37
2017-04-05T00:24:57.765Z,6.38
2017-04-05T00:25:02.369Z,6.37
2017-04-05T00:25:06.681Z,6.37
2017-04-05T00:25:11.116Z,6.38
2017-04-05T00:25:15.421Z,6.37
2017-04-05T00:25:19.848Z,6.38
2017-04-05T00:25:24.302Z,6.38
2017-04-05T00:25:28.727Z,6.38
2017-04-05T00:25:33.162Z,6.38
2017-04-05T00:25:37.619Z,6.38
2017-04-05T00:25:41.926Z,6.38
2017-04-05T00:25:46.233Z,6.38
2017-04-05T00:25:50.687Z,6.37
2017-04-05T00:25:55.001Z,6.38
2017-04-05T00:25:59.308Z,6.37
2017-04-05T00:26:03.739Z,6.37
2017-04-05T00:26:08.047Z,6.38
2017-04-05T00:26:12.359Z,6.38
2017-04-05T00:26:16.788Z,6.37
2017-04-05T00:26:21.209Z,6.37
2017-04-05T00:26:25.522Z,6.38
2017-04-05T00:26:29.946Z,6.37
2017-04-05T00:26:34.373Z,6.38
2017-04-05T00:26:38.686Z,6.37
2017-04-05T00:26:43.112Z,6.36
2017-04-05T00:26:47.537Z,6.37
2017-04-05T00:26:51.854Z,6.37
2017-04-05T00:26:56.304Z,6.38
2017-04-05T00:27:00.731Z,6.37
2017-04-05T00:27:05.263Z,6.37
2017-04-05T00:27:09.571Z,6.37
2017-04-05T00:27:13.999Z,6.37
2017-04-05T00:27:18.316Z,6.37
2017-04-05T00:27:22.753Z,6.37
2017-04-05T00:27:27.066Z,6.37
2017-04-05T00:27:31.495Z,6.37
2017-04-05T00:27:35.802Z,6.36
2017-04-05T00:27:40.227Z,6.37
2017-04-05T00:27:44.653Z,6.36
2017-04-05T00:27:48.974Z,6.36
2017-04-05T00:27:53.447Z,6.37
2017-04-05T00:27:57.876Z,6.36
2017-04-05T00:28:02.604Z,6.36
2017-04-05T00:28:06.912Z,6.38
2017-04-05T00:28:11.341Z,6.37
2017-04-05T00:28:15.772Z,6.36
2017-04-05T00:28:20.196Z,6.36
2017-04-05T00:28:24.615Z,6.36
2017-04-05T00:28:29.037Z,6.36
2017-04-05T00:28:33.231Z,6.36
2017-04-05T00:28:37.684Z,6.36
2017-04-05T00:28:42.105Z,6.37
2017-04-05T00:28:46.523Z,6.35
2017-04-05T00:28:50.831Z,6.36
2017-04-05T00:28:55.260Z,6.36
2017-04-05T00:28:59.680Z,6.36
2017-04-05T00:29:04.111Z,6.36
2017-04-05T00:29:08.301Z,6.36
2017-04-05T00:29:12.610Z,6.35
2017-04-05T00:29:17.038Z,6.35
2017-04-05T00:29:21.467Z,6.35
2017-04-05T00:29:25.918Z,6.36
2017-04-05T00:29:30.346Z,6.35
2017-04-05T00:29:34.538Z,6.36
2017-04-05T00:29:38.971Z,6.36
2017-04-05T00:29:43.422Z,6.36
2017-04-05T00:29:47.843Z,6.36
2017-04-05T00:29:52.271Z,6.36
2017-04-05T00:29:56.578Z,6.36
2017-04-05T00:30:00.999Z,6.36
2017-04-05T00:30:05.429Z,6.36
2017-04-05T00:30:09.763Z,6.35
2017-04-05T00:30:14.182Z,6.36
2017-04-05T00:30:18.377Z,6.36
2017-04-05T00:30:22.805Z,6.36
2017-04-05T00:30:27.120Z,6.36
2017-04-05T00:30:31.540Z,6.36
2017-04-05T00:30:35.973Z,6.36
2017-04-05T00:30:40.402Z,6.35
2017-04-05T00:30:44.825Z,6.36
2017-04-05T00:30:49.252Z,6.36
2017-04-05T00:30:53.692Z,6.35
2017-04-05T00:30:58.117Z,6.35
2017-04-05T00:31:02.544Z,6.35
2017-04-05T00:31:06.855Z,6.35
2017-04-05T00:31:11.162Z,6.34
2017-04-05T00:31:15.586Z,6.35
2017-04-05T00:31:20.013Z,6.35
2017-04-05T00:31:24.434Z,6.35
2017-04-05T00:31:28.861Z,6.34
2017-04-05T00:31:33.169Z,6.35
2017-04-05T00:31:37.596Z,6.34
2017-04-05T00:31:42.044Z,6.35
2017-04-05T00:31:46.476Z,6.35
2017-04-05T00:31:50.903Z,6.35
2017-04-05T00:31:55.342Z,6.35
2017-04-05T00:31:59.766Z,6.34
2017-04-05T00:32:04.084Z,6.34
2017-04-05T00:32:08.508Z,6.34
2017-04-05T00:32:12.820Z,6.35
2017-04-05T00:32:17.123Z,6.33
2017-04-05T00:32:21.554Z,6.34
2017-04-05T00:32:25.989Z,6.34
2017-04-05T00:32:30.295Z,6.33
2017-04-05T00:32:34.720Z,6.34
2017-04-05T00:32:39.151Z,6.33
2017-04-05T00:32:43.452Z,6.33
2017-04-05T00:32:47.872Z,6.33
2017-04-05T00:32:52.067Z,6.33
2017-04-05T00:32:56.489Z,6.35
2017-04-05T00:33:00.910Z,6.34
2017-04-05T00:33:05.341Z,6.33
2017-04-05T00:33:09.770Z,6.33
2017-04-05T00:33:14.196Z,6.33
2017-04-05T00:33:18.624Z,6.33
2017-04-05T00:33:23.084Z,6.33
2017-04-05T00:33:27.386Z,6.33
2017-04-05T00:33:31.814Z,6.33
2017-04-05T00:33:36.236Z,6.33
2017-04-05T00:33:40.686Z,6.33
2017-04-05T00:33:44.876Z,6.33
2017-04-05T00:33:49.299Z,6.33
2017-04-05T00:33:53.608Z,6.33
2017-04-05T00:33:58.041Z,6.33
2017-04-05T00:34:02.471Z,6.33
2017-04-05T00:34:06.776Z,6.33
2017-04-05T00:34:11.194Z,6.32
2017-04-05T00:34:15.649Z,6.32
2017-04-05T00:34:20.071Z,6.33
2017-04-05T00:34:24.498Z,6.33
2017-04-05T00:34:28.806Z,6.32
2017-04-05T00:34:33.265Z,6.32
2017-04-05T00:34:37.572Z,6.32
2017-04-05T00:34:41.994Z,6.33
2017-04-05T00:34:46.421Z,6.33
2017-04-05T00:34:50.857Z,6.32
2017-04-05T00:34:55.280Z,6.32
2017-04-05T00:34:59.699Z,6.32
2017-04-05T00:35:04.209Z,6.32
2017-04-05T00:35:08.637Z,6.32
2017-04-05T00:35:12.834Z,6.32
2017-04-05T00:35:17.261Z,6.33
2017-04-05T00:35:21.580Z,6.33
2017-04-05T00:35:26.011Z,6.32
2017-04-05T00:35:30.436Z,6.32
2017-04-05T00:35:34.622Z,6.32
2017-04-05T00:35:39.044Z,6.32
2017-04-05T00:35:43.378Z,6.31
2017-04-05T00:35:47.815Z,6.32
2017-04-05T00:35:52.244Z,6.32
2017-04-05T00:35:56.673Z,6.31
2017-04-05T00:36:01.107Z,6.32
2017-04-05T00:36:05.416Z,6.32
2017-04-05T00:36:09.605Z,6.32
2017-04-05T00:36:14.029Z,6.32
2017-04-05T00:36:18.459Z,6.32
2017-04-05T00:36:22.766Z,6.31
2017-04-05T00:36:27.080Z,6.31
2017-04-05T00:36:31.502Z,6.32
2017-04-05T00:36:35.926Z,6.32
2017-04-05T00:36:40.377Z,6.32
2017-04-05T00:36:44.796Z,6.31
2017-04-05T00:36:49.223Z,6.32
2017-04-05T00:36:53.659Z,6.32
2017-04-05T00:36:58.083Z,6.32
2017-04-05T00:37:02.661Z,6.31
2017-04-05T00:37:06.975Z,6.31
2017-04-05T00:37:11.432Z,6.31
2017-04-05T00:37:15.739Z,6.31
2017-04-05T00:37:20.170Z,6.31
2017-04-05T00:37:24.598Z,6.32
2017-04-05T00:37:28.904Z,6.31
2017-04-05T00:37:33.212Z,6.31
2017-04-05T00:37:37.524Z,6.31
2017-04-05T00:37:41.954Z,6.31
2017-04-05T00:37:46.380Z,6.31
2017-04-05T00:37:50.682Z,6.31
2017-04-05T00:37:54.989Z,6.31
2017-04-05T00:37:59.426Z,6.31
2017-04-05T00:38:04.000Z,6.31
2017-04-05T00:38:08.190Z,6.31
2017-04-05T00:38:12.617Z,6.31
2017-04-05T00:38:16.924Z,6.31
2017-04-05T00:38:20.874Z,6.3
2017-04-05T00:38:25.302Z,6.31
2017-04-05T00:38:29.726Z,6.31
2017-04-05T00:38:34.041Z,6.31
2017-04-05T00:38:38.463Z,6.3
2017-04-05T00:38:42.768Z,6.3
2017-04-05T00:38:47.196Z,6.31
2017-04-05T00:38:51.649Z,6.31
2017-04-05T00:38:56.072Z,6.31
2017-04-05T00:39:00.490Z,6.3
2017-04-05T00:39:04.921Z,6.3
2017-04-05T00:39:09.354Z,6.3
2017-04-05T00:39:13.786Z,6.3
2017-04-05T00:39:18.206Z,6.3
2017-04-05T00:39:22.514Z,6.3
2017-04-05T00:39:26.944Z,6.3
2017-04-05T00:39:31.369Z,6.31
2017-04-05T00:39:35.797Z,6.3
2017-04-05T00:39:40.227Z,6.3
2017-04-05T00:39:44.688Z,6.3
2017-04-05T00:39:49.109Z,6.31
2017-04-05T00:39:53.295Z,6.3
2017-04-05T00:39:57.716Z,6.3
2017-04-05T00:40:02.149Z,6.3
2017-04-05T00:40:06.575Z,6.3
2017-04-05T00:40:11.010Z,6.3
2017-04-05T00:40:15.438Z,6.3
2017-04-05T00:40:19.749Z,6.3
2017-04-05T00:40:24.058Z,6.3
2017-04-05T00:40:28.367Z,6.3
2017-04-05T00:40:32.788Z,6.3
2017-04-05T00:40:37.216Z,6.31
2017-04-05T00:40:41.638Z,6.3
2017-04-05T00:40:46.058Z,6.3
2017-04-05T00:40:50.485Z,6.3
2017-04-05T00:40:54.802Z,6.3
2017-04-05T00:40:59.110Z,6.29
2017-04-05T00:41:03.539Z,6.3
2017-04-05T00:41:07.854Z,6.29
2017-04-05T00:41:12.273Z,6.3
2017-04-05T00:41:16.460Z,6.3
2017-04-05T00:41:20.888Z,6.31
2017-04-05T00:41:25.318Z,6.3
2017-04-05T00:41:29.741Z,6.3
2017-04-05T00:41:33.931Z,6.29
2017-04-05T00:41:38.360Z,6.31
2017-04-05T00:41:42.793Z,6.3
2017-04-05T00:41:47.214Z,6.3
2017-04-05T00:41:51.635Z,6.3
2017-04-05T00:41:56.059Z,6.29
2017-04-05T00:42:00.494Z,6.29
2017-04-05T00:42:05.004Z,6.3
2017-04-05T00:42:09.431Z,6.3
2017-04-05T00:42:13.857Z,6.29
2017-04-05T00:42:18.288Z,6.3
2017-04-05T00:42:22.475Z,6.3
2017-04-05T00:42:26.783Z,6.29
2017-04-05T00:42:31.205Z,6.29
2017-04-05T00:42:35.515Z,6.3
2017-04-05T00:42:39.825Z,6.29
2017-04-05T00:42:44.254Z,6.3
2017-04-05T00:42:48.686Z,6.29
2017-04-05T00:42:53.154Z,6.3
2017-04-05T00:42:57.582Z,6.29
2017-04-05T00:43:02.007Z,6.29
2017-04-05T00:43:06.432Z,6.29
2017-04-05T00:43:10.502Z,6.29
2017-04-05T00:43:14.928Z,6.29
2017-04-05T00:43:19.361Z,6.29
2017-04-05T00:43:23.548Z,6.29
2017-04-05T00:43:27.978Z,6.29
2017-04-05T00:43:32.401Z,6.29
2017-04-05T00:43:36.713Z,6.29
2017-04-05T00:43:41.137Z,6.29
2017-04-05T00:43:45.560Z,6.3
2017-04-05T00:43:49.983Z,6.29
2017-04-05T00:43:54.288Z,6.29
2017-04-05T00:43:58.719Z,6.3
2017-04-05T00:44:03.181Z,6.3
2017-04-05T00:44:07.367Z,6.3
2017-04-05T00:44:11.559Z,6.29
2017-04-05T00:44:15.865Z,6.29
2017-04-05T00:44:20.312Z,6.3
2017-04-05T00:44:24.740Z,6.29
2017-04-05T00:44:29.162Z,6.3
2017-04-05T00:44:33.591Z,6.3
2017-04-05T00:44:38.022Z,6.3
2017-04-05T00:44:42.443Z,6.3
2017-04-05T00:44:46.864Z,6.3
2017-04-05T00:44:51.297Z,6.3
2017-04-05T00:44:55.717Z,6.3
2017-04-05T00:45:00.174Z,6.3
2017-04-05T00:45:04.599Z,6.3
2017-04-05T00:45:09.037Z,6.3
2017-04-05T00:45:13.463Z,6.3
2017-04-05T00:45:17.891Z,6.3
2017-04-05T00:45:22.212Z,6.3
2017-04-05T00:45:26.518Z,6.3
2017-04-05T00:45:30.953Z,6.3
2017-04-05T00:45:35.383Z,6.3
2017-04-05T00:45:39.802Z,6.3
2017-04-05T00:45:43.882Z,6.3
2017-04-05T00:45:48.313Z,6.3
2017-04-05T00:45:52.734Z,6.3
2017-04-05T00:45:57.161Z,6.3
2017-04-05T00:46:01.593Z,6.31
2017-04-05T00:46:06.119Z,6.3
2017-04-05T00:46:10.427Z,6.3
2017-04-05T00:46:14.851Z,6.29
2017-04-05T00:46:19.278Z,6.3
2017-04-05T00:46:23.631Z,6.3
2017-04-05T00:46:28.062Z,6.3
2017-04-05T00:46:32.374Z,6.29
2017-04-05T00:46:36.691Z,6.3
2017-04-05T00:46:41.117Z,6.29
2017-04-05T00:46:45.541Z,6.29
2017-04-05T00:46:49.999Z,6.3
2017-04-05T00:46:54.422Z,6.29
2017-04-05T00:46:58.847Z,6.3
2017-04-05T00:47:03.278Z,6.3
2017-04-05T00:47:07.588Z,6.3
2017-04-05T00:47:12.014Z,6.3
2017-04-05T00:47:16.438Z,6.3
2017-04-05T00:47:20.865Z,6.3
2017-04-05T00:47:25.053Z,6.29
2017-04-05T00:47:29.502Z,6.29
2017-04-05T00:47:33.925Z,6.3
2017-04-05T00:47:38.348Z,6.29
2017-04-05T00:47:42.776Z,6.29
2017-04-05T00:47:47.200Z,6.3
2017-04-05T00:47:51.619Z,6.3
2017-04-05T00:47:56.043Z,6.29
2017-04-05T00:48:00.465Z,6.3
2017-04-05T00:48:05.050Z,6.29
2017-04-05T00:48:09.355Z,6.29
2017-04-05T00:48:13.776Z,6.29
2017-04-05T00:48:17.858Z,6.29
2017-04-05T00:48:22.283Z,6.3
2017-04-05T00:48:26.703Z,6.3
2017-04-05T00:48:31.015Z,6.29
2017-04-05T00:48:35.436Z,6.31
2017-04-05T00:48:39.857Z,6.3
2017-04-05T00:48:44.283Z,6.3
2017-04-05T00:48:48.739Z,6.3
2017-04-05T00:48:53.165Z,6.3
2017-04-05T00:48:57.595Z,6.3
2017-04-05T00:49:02.020Z,6.3
2017-04-05T00:49:06.331Z,6.3
2017-04-05T00:49:10.753Z,6.3
2017-04-05T00:49:15.061Z,6.3
2017-04-05T00:49:19.482Z,6.3
2017-04-05T00:49:23.932Z,6.3
2017-04-05T00:49:28.355Z,6.3
2017-04-05T00:49:32.660Z,6.31
2017-04-05T00:49:37.083Z,6.3
2017-04-05T00:49:41.533Z,6.3
2017-04-05T00:49:45.959Z,6.29
2017-04-05T00:49:50.391Z,6.29
2017-04-05T00:49:54.595Z,6.29
2017-04-05T00:49:59.017Z,6.29
2017-04-05T00:50:03.450Z,6.29
2017-04-05T00:50:07.763Z,6.28
2017-04-05T00:50:12.184Z,6.29
2017-04-05T00:50:16.490Z,6.29
2017-04-05T00:50:20.931Z,6.29
2017-04-05T00:50:25.244Z,6.29
2017-04-05T00:50:29.667Z,6.29
2017-04-05T00:50:34.091Z,6.29
2017-04-05T00:50:38.517Z,6.28
2017-04-05T00:50:42.944Z,6.28
2017-04-05T00:50:47.369Z,6.29
2017-04-05T00:50:51.567Z,6.29
2017-04-05T00:50:55.999Z,6.29
2017-04-05T00:51:00.422Z,6.28
2017-04-05T00:51:04.858Z,6.28
2017-04-05T00:51:09.163Z,6.28
2017-04-05T00:51:13.583Z,6.29
2017-04-05T00:51:18.006Z,6.28
2017-04-05T00:51:22.434Z,6.28
2017-04-05T00:51:26.747Z,6.27
2017-04-05T00:51:31.172Z,6.28
2017-04-05T00:51:35.475Z,6.29
2017-04-05T00:51:39.910Z,6.28
2017-04-05T00:51:44.220Z,6.28
2017-04-05T00:51:48.527Z,6.28
2017-04-05T00:51:52.957Z,6.28
2017-04-05T00:51:57.384Z,6.28
2017-04-05T00:52:01.817Z,6.28
2017-04-05T00:52:06.121Z,6.28
2017-04-05T00:52:10.543Z,6.28
2017-04-05T00:52:14.737Z,6.28
2017-04-05T00:52:19.046Z,6.28
2017-04-05T00:52:23.464Z,6.28
2017-04-05T00:52:27.771Z,6.28
2017-04-05T00:52:32.200Z,6.28
2017-04-05T00:52:36.535Z,6.28
2017-04-05T00:52:40.955Z,6.28
2017-04-05T00:52:45.257Z,6.27
2017-04-05T00:52:49.687Z,6.29
2017-04-05T00:52:54.116Z,6.28
2017-04-05T00:52:58.535Z,6.28
2017-04-05T00:53:02.957Z,6.28
2017-04-05T00:53:07.387Z,6.29
2017-04-05T00:53:11.828Z,6.28
2017-04-05T00:53:16.249Z,6.28
2017-04-05T00:53:20.673Z,6.28
2017-04-05T00:53:25.102Z,6.28
2017-04-05T00:53:29.541Z,6.28
2017-04-05T00:53:33.845Z,6.28
2017-04-05T00:53:38.165Z,6.29
2017-04-05T00:53:42.600Z,6.29
2017-04-05T00:53:46.787Z,6.29
2017-04-05T00:53:51.213Z,6.29
2017-04-05T00:53:55.519Z,6.28
2017-04-05T00:53:59.944Z,6.3
2017-04-05T00:54:04.676Z,6.29
2017-04-05T00:54:08.985Z,6.3
2017-04-05T00:54:13.409Z,6.29
2017-04-05T00:54:17.835Z,6.29
2017-04-05T00:54:22.145Z,6.29
2017-04-05T00:54:26.451Z,6.29
2017-04-05T00:54:30.885Z,6.29
2017-04-05T00:54:35.323Z,6.29
2017-04-05T00:54:39.623Z,6.29
2017-04-05T00:54:44.050Z,6.29
2017-04-05T00:54:48.472Z,6.3
2017-04-05T00:54:52.904Z,6.29
2017-04-05T00:54:57.204Z,6.3
2017-04-05T00:55:01.732Z,6.3
2017-04-05T00:55:06.162Z,6.29
2017-04-05T00:55:10.473Z,6.3
2017-04-05T00:55:14.892Z,6.3
2017-04-05T00:55:19.319Z,6.3
2017-04-05T00:55:23.748Z,6.31
2017-04-05T00:55:28.173Z,6.3
2017-04-05T00:55:32.484Z,6.3
2017-04-05T00:55:36.792Z,6.31
2017-04-05T00:55:40.986Z,6.31
2017-04-05T00:55:45.420Z,6.3
2017-04-05T00:55:49.840Z,6.31
2017-04-05T00:55:54.264Z,6.3
2017-04-05T00:55:58.688Z,6.3
2017-04-05T00:56:03.100Z,6.3
2017-04-05T00:56:07.521Z,6.3
2017-04-05T00:56:11.830Z,6.31
2017-04-05T00:56:16.262Z,6.3
2017-04-05T00:56:20.714Z,6.3
2017-04-05T00:56:25.145Z,6.31
2017-04-05T00:56:29.570Z,6.3
2017-04-05T00:56:33.884Z,6.31
2017-04-05T00:56:38.200Z,6.3
2017-04-05T00:56:42.506Z,6.3
2017-04-05T00:56:46.933Z,6.3
2017-04-05T00:56:51.361Z,6.3
2017-04-05T00:56:55.788Z,6.31
2017-04-05T00:57:00.218Z,6.3
2017-04-05T00:57:04.674Z,6.31
2017-04-05T00:57:09.097Z,6.31
2017-04-05T00:57:13.523Z,6.31
2017-04-05T00:57:17.945Z,6.31
2017-04-05T00:57:22.373Z,6.32
2017-04-05T00:57:26.795Z,6.31
2017-04-05T00:57:31.111Z,6.31
2017-04-05T00:57:35.422Z,6.31
2017-04-05T00:57:39.729Z,6.32
2017-04-05T00:57:44.148Z,6.31
2017-04-05T00:57:48.573Z,6.32
2017-04-05T00:57:52.994Z,6.32
2017-04-05T00:57:57.418Z,6.33
2017-04-05T00:58:01.895Z,6.32
2017-04-05T00:58:06.322Z,6.33
2017-04-05T00:58:10.657Z,6.32
2017-04-05T00:58:15.080Z,6.32
2017-04-05T00:58:19.379Z,6.32
2017-04-05T00:58:23.801Z,6.32
2017-04-05T00:58:28.223Z,6.32
2017-04-05T00:58:32.526Z,6.32
2017-04-05T00:58:36.718Z,6.31
2017-04-05T00:58:41.150Z,6.32
2017-04-05T00:58:45.455Z,6.33